Time;durP1;ratioP1;P1;durP2;ratioP2;P2;SDS_P1;SDS_P2;PMS_P1;PMS_P2;Temp;Humidity;BMP_temperature;BMP_pressure;BME280_temperature;BME280_humidity;BME280_pressure;Samples;Min_cycle;Max_cycle;Signal;HPM_P1;HPM_P2
2023/12/13 00:02:06;;;;;;;;;;;;;;;4.38;69.43;99553.78;5076130;28;19923;-80
2023/12/13 00:04:32;;;;;;;;;;;;;;;4.37;69.23;99544.28;5076271;28;19916;-80
2023/12/13 00:06:57;;;;;;;;;;;;;;;4.36;69.39;99543.47;5075415;28;19950;-81
2023/12/13 00:09:22;;;;;;;;;;;;;;;4.35;69.12;99543.59;5074368;28;20381;-81
2023/12/13 00:11:48;;;;;;;;;;;;;;;4.34;69.68;99542.78;5074941;28;20412;-81
2023/12/13 00:14:13;;;;;;;;;;;;;;;4.36;69.33;99542.63;5075425;28;20389;-81
2023/12/13 00:16:38;;;;;;;;;;;;;;;4.33;69.32;99540.31;5075236;28;19912;-81
2023/12/13 00:19:04;;;;;;;;;;;;;;;4.31;69.63;99543.06;5074720;28;19995;-81
2023/12/13 00:21:30;;;;;;;;;;;;;;;4.32;69.67;99538.66;5076007;28;19916;-80
2023/12/13 00:23:56;;;;;;;;;;;;;;;4.34;69.71;99528.88;5075934;28;20290;-80
2023/12/13 00:26:23;;;;;;;;;;;;;;;4.36;69.53;99521.72;5075916;28;19916;-81
2023/12/13 00:28:49;;;;;;;;;;;;;;;4.33;69.56;99515.00;5076070;28;19920;-80
2023/12/13 00:31:14;;;;;;;;;;;;;;;4.28;69.48;99516.38;5075769;28;19919;-80
2023/12/13 00:33:40;;;;;;;;;;;;;;;4.32;69.85;99515.13;5075684;28;19913;-80
2023/12/13 00:36:06;;;;;;;;;;;;;;;4.34;69.72;99519.25;5075852;28;19923;-81
2023/12/13 00:38:32;;;;;;;;;;;;;;;4.33;70.08;99519.41;5075510;28;19995;-80
2023/12/13 00:40:57;;;;;;;;;;;;;;;4.34;70.19;99515.81;5075830;28;19923;-81
2023/12/13 00:43:23;;;;;;;;;;;;;;;4.34;69.97;99505.34;5075712;28;19975;-80
2023/12/13 00:45:48;;;;;;;;;;;;;;;4.35;70.16;99504.41;5074171;28;19917;-81
2023/12/13 00:48:14;;;;;;;;;;;;;;;4.38;70.25;99497.09;5075410;28;19913;-80
2023/12/13 00:50:39;;;;;;;;;;;;;;;4.38;70.11;99486.66;5073756;28;19917;-80
2023/12/13 00:53:05;;;;;;;;;;;;;;;4.37;69.95;99498.06;5073808;28;19916;-80
2023/12/13 00:55:30;;;;;;;;;;;;;;;4.34;70.08;99497.53;5075741;28;19913;-80
2023/12/13 00:57:55;;;;;;;;;;;;;;;4.33;70.30;99501.09;5073951;28;20433;-80
2023/12/13 01:00:21;;;;;;;;;;;;;;;4.29;70.26;99487.47;5076315;28;20451;-80
2023/12/13 01:02:47;;;;;;;;;;;;;;;4.28;69.90;99491.06;5076905;28;19913;-81
2023/12/13 01:05:12;;;;;;;;;;;;;;;4.28;70.03;99490.25;5076062;28;19993;-81
2023/12/13 01:07:37;;;;;;;;;;;;;;;4.24;70.21;99494.91;5076618;28;19912;-80
2023/12/13 01:10:04;;;;;;;;;;;;;;;4.24;70.45;99504.53;5076723;28;19916;-81
2023/12/13 01:12:29;;;;;;;;;;;;;;;4.25;70.48;99508.81;5077623;28;19918;-80
2023/12/13 01:14:55;;;;;;;;;;;;;;;4.24;70.33;99507.97;5076199;28;19999;-80
2023/12/13 01:17:20;;;;;;;;;;;;;;;4.24;70.03;99507.97;5073333;28;19913;-80
2023/12/13 01:19:46;;;;;;;;;;;;;;;4.25;70.09;99529.72;5075062;28;19917;-80
2023/12/13 01:22:11;;;;;;;;;;;;;;;4.25;70.12;99535.75;5074569;28;20404;-80
2023/12/13 01:24:37;;;;;;;;;;;;;;;4.28;70.31;99506.75;5074235;28;19919;-80
2023/12/13 01:27:03;;;;;;;;;;;;;;;4.28;70.22;99483.22;5074588;28;19962;-80
2023/12/13 01:29:29;;;;;;;;;;;;;;;4.26;70.17;99466.03;5072987;28;19919;-81
2023/12/13 01:31:54;;;;;;;;;;;;;;;4.23;70.51;99466.31;5073622;28;19927;-80
2023/12/13 01:34:20;;;;;;;;;;;;;;;4.19;70.20;99473.59;5074344;28;19916;-80
2023/12/13 01:36:45;;;;;;;;;;;;;;;4.15;70.38;99456.56;5072696;28;19909;-80
2023/12/13 01:39:12;;;;;;;;;;;;;;;4.11;70.15;99458.63;5073155;28;19934;-80
2023/12/13 01:41:37;;;;;;;;;;;;;;;4.09;70.40;99459.72;5074035;28;19947;-80
2023/12/13 01:44:02;;;;;;;;;;;;;;;4.07;70.37;99474.72;5074251;28;20428;-80
2023/12/13 01:46:30;;;;;;;;;;;;;;;4.08;70.36;99468.53;5074252;28;20385;-80
2023/12/13 01:48:55;;;;;;;;;;;;;;;4.07;70.56;99467.69;5073702;28;19920;-80
2023/12/13 01:51:21;;;;;;;;;;;;;;;4.08;70.64;99471.13;5074443;28;19912;-81
2023/12/13 01:53:46;;;;;;;;;;;;;;;4.07;70.61;99472.94;5074066;28;20003;-81
2023/12/13 01:56:12;;;;;;;;;;;;;;;4.06;70.70;99468.66;5074261;28;19920;-80
2023/12/13 01:58:38;;;;;;;;;;;;;;;4.04;70.44;99457.53;5074148;28;19919;-80
2023/12/13 02:01:03;;;;;;;;;;;;;;;4.04;70.36;99475.81;5073158;28;19924;-80
2023/12/13 02:03:29;;;;;;;;;;;;;;;4.03;70.30;99468.94;5073501;28;19917;-80
2023/12/13 02:05:55;;;;;;;;;;;;;;;4.04;70.38;99475.00;5073391;28;20401;-80
2023/12/13 02:08:22;;;;;;;;;;;;;;;4.05;70.42;99476.63;5072552;28;19912;-80
2023/12/13 02:10:47;;;;;;;;;;;;;;;4.06;70.47;99470.44;5073784;28;19912;-80
2023/12/13 02:13:13;;;;;;;;;;;;;;;4.07;70.32;99461.66;5071705;28;19999;-82
2023/12/13 02:15:39;;;;;;;;;;;;;;;4.08;70.34;99452.84;5071565;28;19935;-80
2023/12/13 02:18:06;;;;;;;;;;;;;;;4.07;70.13;99445.97;5073507;28;19941;-80
2023/12/13 02:20:31;;;;;;;;;;;;;;;4.03;70.29;99437.59;5073925;28;19978;-81
2023/12/13 02:22:56;;;;;;;;;;;;;;;4.00;70.01;99442.28;5073672;28;19913;-80
2023/12/13 02:25:28;;;;;;;;;;;;;;;3.97;70.46;99438.16;5073348;28;19912;-80
2023/12/13 02:27:54;;;;;;;;;;;;;;;3.98;70.17;99426.72;5072261;28;20301;-80
2023/12/13 02:30:20;;;;;;;;;;;;;;;3.99;70.19;99415.31;5073255;28;19916;-80
2023/12/13 02:32:45;;;;;;;;;;;;;;;3.97;70.33;99409.41;5073115;28;19920;-80
2023/12/13 02:35:11;;;;;;;;;;;;;;;3.97;70.23;99401.56;5073381;28;19912;-80
2023/12/13 02:37:36;;;;;;;;;;;;;;;3.99;70.19;99404.06;5073787;28;19913;-80
2023/12/13 02:40:03;;;;;;;;;;;;;;;3.99;70.17;99401.44;5072719;28;20008;-80
2023/12/13 02:42:28;;;;;;;;;;;;;;;3.97;69.89;99393.75;5073168;28;20466;-80
2023/12/13 02:44:54;;;;;;;;;;;;;;;3.97;70.19;99388.50;5073310;28;19912;-80
2023/12/13 02:47:21;;;;;;;;;;;;;;;3.91;70.04;99388.25;5073817;28;19919;-80
2023/12/13 02:49:46;;;;;;;;;;;;;;;3.86;70.07;99395.69;5073860;28;20373;-80
2023/12/13 02:52:11;;;;;;;;;;;;;;;3.82;69.83;99397.75;5073304;28;19923;-80
2023/12/13 02:54:37;;;;;;;;;;;;;;;3.80;69.94;99415.34;5073360;28;20308;-80
2023/12/13 02:57:02;;;;;;;;;;;;;;;3.78;70.49;99402.41;5073168;28;19940;-80
2023/12/13 02:59:27;;;;;;;;;;;;;;;3.82;70.12;99406.41;5072722;28;19913;-81
2023/12/13 03:01:53;;;;;;;;;;;;;;;3.82;70.27;99409.00;5071641;28;20325;-80
2023/12/13 03:04:18;;;;;;;;;;;;;;;3.82;70.01;99411.63;5072065;28;19916;-80
2023/12/13 03:06:43;;;;;;;;;;;;;;;3.80;69.93;99410.94;5073057;28;19920;-80
2023/12/13 03:09:09;;;;;;;;;;;;;;;3.81;69.92;99409.16;5073379;28;19944;-80
2023/12/13 03:11:35;;;;;;;;;;;;;;;3.81;70.06;99399.53;5073034;28;19905;-80
2023/12/13 03:14:00;;;;;;;;;;;;;;;3.85;70.32;99391.41;5073817;28;19917;-81
2023/12/13 03:16:25;;;;;;;;;;;;;;;3.86;70.01;99387.84;5072747;28;19952;-80
2023/12/13 03:18:51;;;;;;;;;;;;;;;3.86;70.06;99385.22;5072944;28;19999;-80
2023/12/13 03:21:16;;;;;;;;;;;;;;;3.87;69.90;99405.97;5072961;28;19960;-80
2023/12/13 03:23:42;;;;;;;;;;;;;;;3.86;69.88;99412.16;5070995;28;19918;-80
2023/12/13 03:26:07;;;;;;;;;;;;;;;3.83;69.93;99410.66;5073323;28;19913;-80
2023/12/13 03:28:32;;;;;;;;;;;;;;;3.86;70.05;99398.28;5073384;28;19965;-80
2023/12/13 03:30:58;;;;;;;;;;;;;;;3.82;69.44;99403.78;5073993;28;20364;-80
2023/12/13 03:33:23;;;;;;;;;;;;;;;3.83;69.51;99415.06;5073690;28;19951;-80
2023/12/13 03:35:48;;;;;;;;;;;;;;;3.80;69.30;99418.78;5071869;28;20404;-81
2023/12/13 03:38:14;;;;;;;;;;;;;;;3.79;69.48;99421.53;5072374;28;19916;-81
2023/12/13 03:40:39;;;;;;;;;;;;;;;3.79;69.52;99409.28;5073867;28;20003;-81
2023/12/13 03:43:04;;;;;;;;;;;;;;;3.80;69.93;99407.50;5073988;28;19912;-80
2023/12/13 03:45:30;;;;;;;;;;;;;;;3.79;69.52;99400.63;5071676;28;19912;-80
2023/12/13 03:47:55;;;;;;;;;;;;;;;3.75;69.90;99396.66;5073378;28;19919;-80
2023/12/13 03:50:20;;;;;;;;;;;;;;;3.72;70.13;99392.53;5073192;28;19913;-80
2023/12/13 03:52:46;;;;;;;;;;;;;;;3.72;70.02;99396.94;5073374;28;19912;-81
2023/12/13 03:55:12;;;;;;;;;;;;;;;3.78;69.96;99412.03;5074892;28;19918;-80
2023/12/13 03:57:38;;;;;;;;;;;;;;;3.82;69.84;99419.47;5076782;28;19912;-80
2023/12/13 04:00:04;;;;;;;;;;;;;;;3.85;69.60;99415.75;5076735;28;20370;-80
2023/12/13 04:02:29;;;;;;;;;;;;;;;3.83;69.53;99412.44;5076720;28;19913;-80
2023/12/13 04:04:55;;;;;;;;;;;;;;;3.79;69.66;99404.06;5076802;28;19920;-80
2023/12/13 04:07:20;;;;;;;;;;;;;;;3.75;69.87;99394.88;5074508;28;19920;-80
2023/12/13 04:09:45;;;;;;;;;;;;;;;3.76;70.34;99386.06;5076239;28;19917;-80
2023/12/13 04:12:11;;;;;;;;;;;;;;;3.81;70.11;99383.03;5075943;28;19920;-81
2023/12/13 04:14:38;;;;;;;;;;;;;;;3.83;70.31;99376.72;5074342;28;20269;-81
2023/12/13 04:17:04;;;;;;;;;;;;;;;3.90;70.28;99373.53;5075624;28;19947;-80
2023/12/13 04:19:29;;;;;;;;;;;;;;;3.93;70.29;99389.75;5073962;28;19923;-80
2023/12/13 04:21:54;;;;;;;;;;;;;;;3.90;70.43;99429.22;5075628;28;19963;-80
2023/12/13 04:24:20;;;;;;;;;;;;;;;3.94;70.42;99443.66;5075765;28;19991;-80
2023/12/13 04:26:45;;;;;;;;;;;;;;;3.99;70.30;99444.06;5075454;28;20282;-80
2023/12/13 04:29:10;;;;;;;;;;;;;;;4.01;70.13;99449.97;5075874;28;19981;-80
2023/12/13 04:31:36;;;;;;;;;;;;;;;4.04;69.99;99444.47;5075305;28;19913;-80
2023/12/13 04:34:01;;;;;;;;;;;;;;;3.96;70.27;99435.66;5075489;28;20401;-80
2023/12/13 04:36:26;;;;;;;;;;;;;;;3.93;70.16;99426.31;5075295;28;20487;-80
2023/12/13 04:38:51;;;;;;;;;;;;;;;3.96;70.33;99425.22;5075644;28;19959;-80
2023/12/13 04:41:17;;;;;;;;;;;;;;;3.93;70.26;99434.16;5075532;28;20451;-80
2023/12/13 04:43:42;;;;;;;;;;;;;;;3.95;70.25;99447.91;5075936;28;20404;-80
2023/12/13 04:46:08;;;;;;;;;;;;;;;3.96;70.07;99448.72;5075541;28;20393;-80
2023/12/13 04:48:33;;;;;;;;;;;;;;;3.92;70.31;99449.97;5074299;28;19952;-80
2023/12/13 04:50:59;;;;;;;;;;;;;;;3.96;70.02;99446.13;5075422;28;19942;-80
2023/12/13 04:53:24;;;;;;;;;;;;;;;4.00;70.12;99447.50;5075276;28;19920;-80
2023/12/13 04:55:49;;;;;;;;;;;;;;;4.01;70.27;99444.75;5075184;28;19916;-80
2023/12/13 04:58:15;;;;;;;;;;;;;;;4.00;70.19;99448.31;5074886;28;19913;-81
2023/12/13 05:00:40;;;;;;;;;;;;;;;3.98;70.60;99437.19;5075250;28;19944;-80
2023/12/13 05:03:05;;;;;;;;;;;;;;;3.99;70.31;99438.84;5075408;28;20286;-80
2023/12/13 05:05:31;;;;;;;;;;;;;;;4.04;70.51;99435.81;5074314;28;20462;-80
2023/12/13 05:07:56;;;;;;;;;;;;;;;4.07;70.03;99436.34;5074787;28;20397;-80
2023/12/13 05:10:21;;;;;;;;;;;;;;;4.06;70.23;99436.50;5074586;28;19916;-80
2023/12/13 05:12:47;;;;;;;;;;;;;;;4.07;70.39;99449.41;5075104;28;19919;-80
2023/12/13 05:15:12;;;;;;;;;;;;;;;4.05;70.44;99461.78;5074962;28;19912;-80
2023/12/13 05:17:37;;;;;;;;;;;;;;;4.08;70.27;99473.75;5074832;28;19912;-80
2023/12/13 05:20:04;;;;;;;;;;;;;;;4.13;70.44;99489.84;5074956;28;19920;-80
2023/12/13 05:22:29;;;;;;;;;;;;;;;4.14;70.24;99483.66;5073402;28;19912;-81
2023/12/13 05:24:54;;;;;;;;;;;;;;;4.13;70.02;99480.22;5074902;28;19913;-80
2023/12/13 05:27:20;;;;;;;;;;;;;;;4.00;70.19;99460.56;5074561;28;19912;-81
2023/12/13 05:29:45;;;;;;;;;;;;;;;3.99;70.17;99454.50;5074775;28;20313;-80
2023/12/13 05:32:10;;;;;;;;;;;;;;;3.99;70.25;99458.91;5073179;28;20451;-81
2023/12/13 05:34:36;;;;;;;;;;;;;;;4.01;70.08;99451.75;5074885;28;19917;-80
2023/12/13 05:37:05;;;;;;;;;;;;;;;4.01;70.01;99446.53;5074851;28;19916;-80
2023/12/13 05:39:31;;;;;;;;;;;;;;;4.02;69.99;99438.56;5073963;28;19912;-81
2023/12/13 05:41:56;;;;;;;;;;;;;;;4.08;69.87;99430.16;5072358;28;19912;-81
2023/12/13 05:44:22;;;;;;;;;;;;;;;4.12;69.70;99422.88;5073788;28;19912;-81
2023/12/13 05:46:47;;;;;;;;;;;;;;;4.13;69.59;99427.13;5073915;28;19912;-81
2023/12/13 05:49:12;;;;;;;;;;;;;;;4.12;69.82;99418.47;5077726;28;19979;-80
2023/12/13 05:51:38;;;;;;;;;;;;;;;4.08;69.54;99416.28;5077290;28;19912;-80
2023/12/13 05:54:04;;;;;;;;;;;;;;;4.11;69.63;99423.84;5078087;28;19948;-80
2023/12/13 05:56:31;;;;;;;;;;;;;;;4.11;69.67;99435.09;5095355;28;19911;-80
2023/12/13 05:58:57;;;;;;;;;;;;;;;4.12;69.78;99449.81;5120793;28;19920;-81
2023/12/13 06:01:22;;;;;;;;;;;;;;;4.16;69.80;99445.13;5120091;28;19989;-81
2023/12/13 06:03:47;;;;;;;;;;;;;;;4.16;69.69;99439.91;5109641;28;19912;-81
2023/12/13 06:06:13;;;;;;;;;;;;;;;4.19;69.85;99444.03;5098034;28;20408;-81
2023/12/13 06:08:39;;;;;;;;;;;;;;;4.25;69.90;99449.53;5102570;28;19935;-80
2023/12/13 06:11:04;;;;;;;;;;;;;;;4.27;69.71;99446.78;5099312;28;20005;-80
2023/12/13 06:13:29;;;;;;;;;;;;;;;4.31;69.74;99445.53;5100818;28;19912;-81
2023/12/13 06:15:55;;;;;;;;;;;;;;;4.33;69.60;99438.38;5102118;28;19933;-81
2023/12/13 06:18:20;;;;;;;;;;;;;;;4.38;69.69;99436.97;5103957;28;19919;-81
2023/12/13 06:20:45;;;;;;;;;;;;;;;4.40;69.74;99439.47;5110867;28;19975;-80
2023/12/13 06:23:11;;;;;;;;;;;;;;;4.42;69.56;99438.34;5113503;28;19923;-81
2023/12/13 06:25:36;;;;;;;;;;;;;;;4.44;69.60;99433.81;5109712;28;19915;-81
2023/12/13 06:28:01;;;;;;;;;;;;;;;4.44;69.62;99439.03;5098380;28;19916;-80
2023/12/13 06:30:27;;;;;;;;;;;;;;;4.44;69.86;99441.66;5099293;28;19908;-81
2023/12/13 06:32:52;;;;;;;;;;;;;;;4.44;69.92;99436.41;5098784;28;19972;-81
2023/12/13 06:35:18;;;;;;;;;;;;;;;4.50;70.03;99423.78;5099757;28;20341;-81
2023/12/13 06:37:43;;;;;;;;;;;;;;;4.56;70.00;99410.13;5099919;28;19913;-81
2023/12/13 06:40:08;;;;;;;;;;;;;;;4.60;70.13;99411.50;5099686;28;20388;-81
2023/12/13 06:42:35;;;;;;;;;;;;;;;4.62;70.34;99414.78;5108250;28;19916;-81
2023/12/13 06:45:00;;;;;;;;;;;;;;;4.62;69.90;99414.78;5120463;28;19912;-81
2023/12/13 06:47:26;;;;;;;;;;;;;;;4.62;70.11;99392.09;5110098;28;19924;-81
2023/12/13 06:49:51;;;;;;;;;;;;;;;4.62;70.00;99392.09;5113075;28;20341;-81
2023/12/13 06:52:17;;;;;;;;;;;;;;;4.63;69.98;99398.13;5118907;28;20415;-81
2023/12/13 06:54:42;;;;;;;;;;;;;;;4.67;69.94;99405.53;5119151;28;19915;-81
2023/12/13 06:57:07;;;;;;;;;;;;;;;4.70;69.99;99410.50;5119322;28;19957;-81
2023/12/13 06:59:33;;;;;;;;;;;;;;;4.74;69.57;99411.03;5100015;28;19916;-80
2023/12/13 07:01:58;;;;;;;;;;;;;;;4.78;69.56;99415.81;5102965;28;20359;-81
2023/12/13 07:04:24;;;;;;;;;;;;;;;4.78;69.41;99417.63;5098635;28;19918;-81
2023/12/13 07:06:49;;;;;;;;;;;;;;;4.77;69.66;99411.56;5104071;28;19919;-81
2023/12/13 07:09:18;;;;;;;;;;;;;;;4.77;69.36;99401.09;5104780;28;20345;-81
2023/12/13 07:11:44;;;;;;;;;;;;;;;4.80;69.87;99397.38;5099758;28;19991;-81
2023/12/13 07:14:09;;;;;;;;;;;;;;;4.79;69.90;99400.94;5114153;28;20032;-81
2023/12/13 07:16:34;;;;;;;;;;;;;;;4.82;69.76;99398.03;5116975;28;19919;-81
2023/12/13 07:19:00;;;;;;;;;;;;;;;4.82;69.66;99407.69;5117554;28;19926;-81
2023/12/13 07:21:25;;;;;;;;;;;;;;;4.88;69.95;99407.94;5101871;28;19973;-81
2023/12/13 07:23:50;;;;;;;;;;;;;;;4.94;69.91;99401.28;5094990;28;19916;-81
2023/12/13 07:26:16;;;;;;;;;;;;;;;4.98;69.46;99408.72;5097182;28;21405;-80
2023/12/13 07:28:42;;;;;;;;;;;;;;;5.02;69.34;99409.25;5094762;28;19912;-81
2023/12/13 07:31:08;;;;;;;;;;;;;;;5.02;69.78;99417.91;5096973;28;20393;-80
2023/12/13 07:33:34;;;;;;;;;;;;;;;5.07;69.57;99412.25;5082970;28;19924;-80
2023/12/13 07:36:00;;;;;;;;;;;;;;;5.08;69.39;99406.84;5089879;28;19966;-80
2023/12/13 07:38:25;;;;;;;;;;;;;;;5.14;69.51;99407.25;5096784;28;20370;-80
2023/12/13 07:40:50;;;;;;;;;;;;;;;5.18;69.22;99405.97;5096273;28;20046;-80
2023/12/13 07:43:16;;;;;;;;;;;;;;;5.25;69.75;99396.59;5105204;28;20481;-82
2023/12/13 07:45:43;;;;;;;;;;;;;;;5.33;69.70;99386.22;5099413;28;19926;-82
2023/12/13 07:48:08;;;;;;;;;;;;;;;5.39;69.08;99396.09;5088149;28;19912;-80
2023/12/13 07:50:33;;;;;;;;;;;;;;;5.45;69.11;99399.91;5093751;28;20007;-82
2023/12/13 07:52:59;;;;;;;;;;;;;;;5.51;68.95;99394.06;5080999;28;19916;-82
2023/12/13 07:55:24;;;;;;;;;;;;;;;5.54;68.79;99384.13;5081542;28;19916;-82
2023/12/13 07:57:49;;;;;;;;;;;;;;;5.55;69.12;99379.72;5077971;28;19965;-82
2023/12/13 08:00:15;;;;;;;;;;;;;;;5.56;68.99;99376.94;5088879;28;19960;-82
2023/12/13 08:02:41;;;;;;;;;;;;;;;5.57;69.21;99373.34;5077432;28;19916;-81
2023/12/13 08:05:06;;;;;;;;;;;;;;;5.59;69.14;99362.72;5087761;28;19919;-82
2023/12/13 08:07:32;;;;;;;;;;;;;;;5.63;68.75;99364.88;5097147;28;20417;-81
2023/12/13 08:09:59;;;;;;;;;;;;;;;5.66;68.91;99369.00;5089941;28;19916;-82
2023/12/13 08:12:25;;;;;;;;;;;;;;;5.70;68.99;99360.69;5088672;28;19920;-83
2023/12/13 08:14:50;;;;;;;;;;;;;;;5.78;68.94;99361.72;5097294;28;19966;-82
2023/12/13 08:17:15;;;;;;;;;;;;;;;5.84;69.18;99366.38;5084154;28;19924;-80
2023/12/13 08:19:42;;;;;;;;;;;;;;;5.87;68.34;99348.53;5093163;28;19938;-79
2023/12/13 08:22:07;;;;;;;;;;;;;;;5.92;68.41;99355.97;5093150;28;20001;-80
2023/12/13 08:24:33;;;;;;;;;;;;;;;5.98;68.95;99342.28;5101658;28;19986;-81
2023/12/13 08:26:58;;;;;;;;;;;;;;;6.04;68.25;99344.28;5093011;28;19939;-82
2023/12/13 08:29:23;;;;;;;;;;;;;;;6.09;68.31;99344.66;5087258;28;19924;-81
2023/12/13 08:31:49;;;;;;;;;;;;;;;6.18;68.66;99342.91;5076094;28;19926;-81
2023/12/13 08:34:15;;;;;;;;;;;;;;;6.28;68.32;99335.75;5079698;28;20007;-81
2023/12/13 08:36:40;;;;;;;;;;;;;;;6.33;68.69;99333.50;5072113;28;20004;-81
2023/12/13 08:39:06;;;;;;;;;;;;;;;6.38;67.70;99329.41;5086763;28;20396;-81
2023/12/13 08:41:32;;;;;;;;;;;;;;;6.40;68.32;99320.56;5093909;28;20312;-81
2023/12/13 08:43:57;;;;;;;;;;;;;;;6.44;68.23;99316.66;5083677;28;19916;-82
2023/12/13 08:46:23;;;;;;;;;;;;;;;6.51;68.04;99304.56;5092726;28;19939;-80
2023/12/13 08:48:48;;;;;;;;;;;;;;;6.58;68.20;99309.00;5080151;28;19916;-81
2023/12/13 08:51:14;;;;;;;;;;;;;;;6.63;68.05;99311.97;5075180;28;19951;-81
2023/12/13 08:53:39;;;;;;;;;;;;;;;6.71;67.60;99307.78;5081985;28;19916;-81
2023/12/13 08:56:05;;;;;;;;;;;;;;;6.76;67.35;99308.94;5071929;28;20026;-80
2023/12/13 08:58:30;;;;;;;;;;;;;;;6.77;67.85;99317.63;5072633;28;20507;-81
2023/12/13 09:00:56;;;;;;;;;;;;;;;6.81;68.05;99314.53;5073249;28;19947;-82
2023/12/13 09:03:21;;;;;;;;;;;;;;;6.88;67.90;99309.47;5074042;28;19912;-81
2023/12/13 09:05:46;;;;;;;;;;;;;;;6.93;68.41;99302.75;5081973;28;19928;-81
2023/12/13 09:08:13;;;;;;;;;;;;;;;6.96;68.18;99281.44;5085398;28;20366;-82
2023/12/13 09:10:38;;;;;;;;;;;;;;;6.99;68.09;99281.13;5093687;28;19904;-81
2023/12/13 09:13:03;;;;;;;;;;;;;;;7.07;67.13;99266.34;5089732;28;19946;-80
2023/12/13 09:15:29;;;;;;;;;;;;;;;7.14;68.68;99270.78;5087548;28;19916;-80
2023/12/13 09:17:54;;;;;;;;;;;;;;;7.20;67.87;99264.88;5093152;28;19916;-81
2023/12/13 09:20:19;;;;;;;;;;;;;;;7.28;67.92;99250.94;5088285;28;19920;-81
2023/12/13 09:22:45;;;;;;;;;;;;;;;7.38;67.28;99235.03;5110613;28;19915;-81
2023/12/13 09:25:14;;;;;;;;;;;;;;;7.42;66.74;99223.19;5093205;28;19923;-80
2023/12/13 09:27:40;;;;;;;;;;;;;;;7.42;68.19;99226.66;5085662;28;19916;-81
2023/12/13 09:30:05;;;;;;;;;;;;;;;7.48;68.15;99235.69;5080454;28;19949;-81
2023/12/13 09:32:33;;;;;;;;;;;;;;;7.50;68.46;99244.25;5081289;28;19965;-80
2023/12/13 09:34:58;;;;;;;;;;;;;;;7.54;68.58;99250.81;5083574;28;19971;-80
2023/12/13 09:37:24;;;;;;;;;;;;;;;7.58;68.62;99252.09;5091628;28;20015;-81
2023/12/13 09:39:49;;;;;;;;;;;;;;;7.62;68.76;99248.16;5092957;28;19928;-80
2023/12/13 09:42:15;;;;;;;;;;;;;;;7.64;68.81;99241.75;5078295;28;19970;-81
2023/12/13 09:44:42;;;;;;;;;;;;;;;7.62;69.33;99241.09;5086773;28;20000;-82
2023/12/13 09:47:08;;;;;;;;;;;;;;;7.64;69.55;99226.00;5087358;28;19938;-81
2023/12/13 09:49:36;;;;;;;;;;;;;;;7.70;69.09;99214.00;5092480;28;20455;-81
2023/12/13 09:52:02;;;;;;;;;;;;;;;7.80;68.80;99219.06;5102141;28;19916;-81
2023/12/13 09:54:28;;;;;;;;;;;;;;;7.87;68.90;99227.91;5111083;28;19919;-82
2023/12/13 09:56:53;;;;;;;;;;;;;;;7.92;69.02;99221.16;5104961;28;19916;-82
2023/12/13 09:59:18;;;;;;;;;;;;;;;8.00;68.74;99219.50;5094705;28;19969;-83
2023/12/13 10:01:44;;;;;;;;;;;;;;;8.03;69.16;99219.97;5075221;28;19920;-81
2023/12/13 10:04:09;;;;;;;;;;;;;;;8.10;68.40;99217.47;5072500;28;20290;-81
2023/12/13 10:06:35;;;;;;;;;;;;;;;8.10;69.09;99225.38;5083595;28;19920;-80
2023/12/13 10:09:02;;;;;;;;;;;;;;;8.15;69.68;99220.41;5085410;28;19916;-80
2023/12/13 10:11:28;;;;;;;;;;;;;;;8.20;69.29;99211.06;5089465;28;19942;-80
2023/12/13 10:13:54;;;;;;;;;;;;;;;8.21;69.86;99210.06;5104154;28;20355;-80
2023/12/13 10:16:20;;;;;;;;;;;;;;;8.17;69.50;99206.13;5112684;28;20427;-80
2023/12/13 10:18:46;;;;;;;;;;;;;;;8.20;69.03;99211.06;5087530;28;19944;-79
2023/12/13 10:21:12;;;;;;;;;;;;;;;8.27;69.35;99192.78;5081686;28;20022;-80
2023/12/13 10:23:39;;;;;;;;;;;;;;;8.34;68.84;99175.34;5073832;28;19916;-80
2023/12/13 10:26:05;;;;;;;;;;;;;;;8.45;68.06;99185.50;5071642;28;19912;-80
2023/12/13 10:28:33;;;;;;;;;;;;;;;8.54;68.68;99188.91;5071618;28;20003;-80
2023/12/13 10:30:58;;;;;;;;;;;;;;;8.62;68.92;99188.03;5106389;28;19915;-81
2023/12/13 10:33:23;;;;;;;;;;;;;;;8.65;68.74;99172.69;5093205;28;20002;-80
2023/12/13 10:35:51;;;;;;;;;;;;;;;8.69;67.58;99163.47;5102765;28;20010;-80
2023/12/13 10:38:17;;;;;;;;;;;;;;;8.69;67.68;99168.72;5092671;28;19916;-80
2023/12/13 10:40:43;;;;;;;;;;;;;;;8.71;67.05;99168.56;5085435;28;20007;-79
2023/12/13 10:43:10;;;;;;;;;;;;;;;8.71;68.52;99158.84;5083970;28;20032;-80
2023/12/13 10:45:50;;;;;;;;;;;;;;;8.75;67.94;99157.50;5084775;28;19916;-81
2023/12/13 10:48:16;;;;;;;;;;;;;;;8.80;69.30;99160.41;5071799;28;19916;-81
2023/12/13 10:50:43;;;;;;;;;;;;;;;8.80;68.88;99155.16;5077830;28;19920;-80
2023/12/13 10:53:08;;;;;;;;;;;;;;;8.84;68.19;99163.53;5074635;28;20337;-80
2023/12/13 10:55:35;;;;;;;;;;;;;;;8.82;69.37;99171.59;5080356;28;19923;-79
2023/12/13 10:58:01;;;;;;;;;;;;;;;8.80;68.31;99173.59;5111841;28;19912;-80
2023/12/13 11:00:27;;;;;;;;;;;;;;;8.77;68.68;99179.19;5110470;28;20311;-80
2023/12/13 11:03:11;;;;;;;;;;;;;;;8.79;68.94;99181.66;5093318;28;20011;-80
2023/12/13 11:05:37;;;;;;;;;;;;;;;8.74;70.69;99178.72;5083153;28;19920;-81
2023/12/13 11:08:12;;;;;;;;;;;;;;;8.72;69.72;99171.00;5092576;28;19939;-81
2023/12/13 11:10:37;;;;;;;;;;;;;;;8.63;69.82;99164.16;5091095;28;19924;-80
2023/12/13 11:13:03;;;;;;;;;;;;;;;8.62;69.16;99159.06;5085215;28;20027;-80
2023/12/13 11:15:28;;;;;;;;;;;;;;;8.59;69.79;99168.13;5089228;28;19981;-79
2023/12/13 11:17:55;;;;;;;;;;;;;;;8.57;69.67;99172.75;5096689;28;19965;-79
2023/12/13 11:20:21;;;;;;;;;;;;;;;8.56;69.98;99168.50;5104686;28;19920;-80
2023/12/13 11:22:48;;;;;;;;;;;;;;;8.58;69.07;99166.50;5096518;28;20320;-79
2023/12/13 11:25:14;;;;;;;;;;;;;;;8.55;70.46;99161.59;5095306;28;19912;-79
2023/12/13 11:27:53;;;;;;;;;;;;;;;8.53;70.50;99145.16;5088808;28;19923;-80
2023/12/13 11:30:20;;;;;;;;;;;;;;;8.53;70.93;99137.25;5092119;28;19938;-79
2023/12/13 11:32:46;;;;;;;;;;;;;;;8.52;70.26;99119.84;5078049;28;20385;-79
2023/12/13 11:35:16;;;;;;;;;;;;;;;8.54;70.08;99134.44;5098392;28;19923;-79
2023/12/13 11:37:42;;;;;;;;;;;;;;;8.59;69.25;99147.09;5095183;28;20369;-80
2023/12/13 11:40:08;;;;;;;;;;;;;;;8.60;70.03;99148.72;5093160;28;19920;-81
2023/12/13 11:42:34;;;;;;;;;;;;;;;8.58;70.32;99156.78;5084849;28;19958;-81
2023/12/13 11:44:59;;;;;;;;;;;;;;;8.59;70.54;99147.09;5088402;28;19916;-80
2023/12/13 11:47:25;;;;;;;;;;;;;;;8.63;70.35;99135.22;5097651;28;20418;-80
2023/12/13 11:49:50;;;;;;;;;;;;;;;8.62;69.91;99140.66;5090117;28;19917;-80
2023/12/13 11:52:16;;;;;;;;;;;;;;;8.55;71.23;99140.53;5092524;28;19921;-81
2023/12/13 11:54:41;;;;;;;;;;;;;;;8.59;71.11;99137.38;5081997;28;19945;-80
2023/12/13 11:57:18;;;;;;;;;;;;;;;8.58;70.05;99129.66;5105458;28;19911;-82
2023/12/13 11:59:45;;;;;;;;;;;;;;;8.55;69.70;99120.31;5113560;28;19919;-81
2023/12/13 12:02:10;;;;;;;;;;;;;;;8.52;69.90;99107.50;5115227;28;19919;-82
2023/12/13 12:04:36;;;;;;;;;;;;;;;8.56;70.06;99110.59;5093851;28;19916;-81
2023/12/13 12:07:04;;;;;;;;;;;;;;;8.55;69.99;99106.31;5093633;28;20032;-80
2023/12/13 12:09:30;;;;;;;;;;;;;;;8.56;70.36;99100.06;5093025;28;19923;-79
2023/12/13 12:11:57;;;;;;;;;;;;;;;8.59;69.99;99104.97;5096577;28;19915;-79
2023/12/13 12:14:29;;;;;;;;;;;;;;;8.61;70.19;99103.00;5114950;28;19915;-80
2023/12/13 12:16:57;;;;;;;;;;;;;;;8.58;70.40;99090.19;5115025;28;20391;-80
2023/12/13 12:19:23;;;;;;;;;;;;;;;8.56;70.69;99097.44;5114736;28;19992;-79
2023/12/13 12:21:49;;;;;;;;;;;;;;;8.59;70.64;99099.72;5101157;28;20011;-79
2023/12/13 12:24:15;;;;;;;;;;;;;;;8.56;70.16;99081.66;5083647;28;20376;-80
2023/12/13 12:26:40;;;;;;;;;;;;;;;8.57;69.89;99089.38;5094256;28;19919;-80
2023/12/13 12:29:05;;;;;;;;;;;;;;;8.56;70.63;99084.28;5095179;28;19959;-80
2023/12/13 12:31:31;;;;;;;;;;;;;;;8.53;70.53;99092.53;5091478;28;19932;-80
2023/12/13 12:33:57;;;;;;;;;;;;;;;8.50;70.74;99074.47;5076403;28;19912;-79
2023/12/13 12:36:23;;;;;;;;;;;;;;;8.45;70.56;99076.81;5096631;28;19920;-80
2023/12/13 12:38:48;;;;;;;;;;;;;;;8.36;71.78;99081.31;5089554;28;19938;-80
2023/12/13 12:41:14;;;;;;;;;;;;;;;8.27;72.04;99067.38;5090099;28;20030;-81
2023/12/13 12:43:39;;;;;;;;;;;;;;;8.25;71.44;99068.53;5097008;28;19915;-81
2023/12/13 12:46:05;;;;;;;;;;;;;;;8.24;71.84;99065.09;5098058;28;19916;-81
2023/12/13 12:48:30;;;;;;;;;;;;;;;8.24;72.37;99070.34;5085864;28;20290;-82
2023/12/13 12:50:56;;;;;;;;;;;;;;;8.25;71.93;99068.53;5074617;28;19942;-81